Terminal Aerodrome Forecast
Issued by NWS Billings, MT

Home | Current Version | Previous Version | Graphics & Text | Print | Product List | Glossary On
Versions: 1 2 3 4 5 6 7 8 9 10 11 12 13 14 15 16 17 18 19 20 21 22 23 24 25 26 27 28 29 30 31 32
000
FTUS45 KBYZ 242217 AAC
TAFMLS
TAF AMD
KMLS 242217Z 2422/2518 34018G30KT P6SM VCSH FEW080 BKN120
      TEMPO 2422/2501 02020G26KT -SHRA BKN070
     FM250230 32014G24KT P6SM SCT150
     FM251000 28019G31KT P6SM FEW120=

USA.gov is the U.S. government's official web portal to all federal, state and local government web resources and services.